sensor_id;sensor_type;location;lat;lon;timestamp;temperature;humidity
24158;DHT22;12316;50.904;4.200;2023-05-16T00:01:09;9.30;99.90
24158;DHT22;12316;50.904;4.200;2023-05-16T00:03:34;9.30;99.90
24158;DHT22;12316;50.904;4.200;2023-05-16T00:06:02;9.30;99.90
24158;DHT22;12316;50.904;4.200;2023-05-16T00:08:28;9.30;99.90
24158;DHT22;12316;50.904;4.200;2023-05-16T00:10:54;9.20;99.90
24158;DHT22;12316;50.904;4.200;2023-05-16T00:13:19;9.20;99.90
24158;DHT22;12316;50.904;4.200;2023-05-16T00:15:52;9.20;99.90
24158;DHT22;12316;50.904;4.200;2023-05-16T00:18:20;9.20;99.90
24158;DHT22;12316;50.904;4.200;2023-05-16T00:20:47;9.10;99.90
24158;DHT22;12316;50.904;4.200;2023-05-16T00:23:13;9.10;99.90
24158;DHT22;12316;50.904;4.200;2023-05-16T00:25:39;9.10;99.90
24158;DHT22;12316;50.904;4.200;2023-05-16T00:28:06;9.10;99.90
24158;DHT22;12316;50.904;4.200;2023-05-16T00:30:34;9.00;99.90
24158;DHT22;12316;50.904;4.200;2023-05-16T00:33:00;8.90;99.90
24158;DHT22;12316;50.904;4.200;2023-05-16T00:35:26;8.90;99.90
24158;DHT22;12316;50.904;4.200;2023-05-16T00:37:52;8.90;99.90
24158;DHT22;12316;50.904;4.200;2023-05-16T00:40:18;8.90;99.90
24158;DHT22;12316;50.904;4.200;2023-05-16T00:42:44;8.80;99.90
24158;DHT22;12316;50.904;4.200;2023-05-16T00:45:10;8.80;99.90
24158;DHT22;12316;50.904;4.200;2023-05-16T00:47:36;8.70;99.90
24158;DHT22;12316;50.904;4.200;2023-05-16T00:50:02;8.70;99.90
24158;DHT22;12316;50.904;4.200;2023-05-16T00:52:29;8.70;99.90
24158;DHT22;12316;50.904;4.200;2023-05-16T00:54:56;8.70;99.90
24158;DHT22;12316;50.904;4.200;2023-05-16T00:57:21;8.70;99.90
24158;DHT22;12316;50.904;4.200;2023-05-16T00:59:48;8.70;99.90
24158;DHT22;12316;50.904;4.200;2023-05-16T01:02:13;8.60;99.90
24158;DHT22;12316;50.904;4.200;2023-05-16T01:04:39;8.60;99.90
24158;DHT22;12316;50.904;4.200;2023-05-16T01:07:05;8.60;99.90
24158;DHT22;12316;50.904;4.200;2023-05-16T01:09:31;8.60;99.90
24158;DHT22;12316;50.904;4.200;2023-05-16T01:12:22;8.60;99.90
24158;DHT22;12316;50.904;4.200;2023-05-16T01:15:12;8.50;99.90
24158;DHT22;12316;50.904;4.200;2023-05-16T01:18:06;8.50;99.90
24158;DHT22;12316;50.904;4.200;2023-05-16T01:20:44;8.50;99.90
24158;DHT22;12316;50.904;4.200;2023-05-16T01:28:38;8.40;99.90
24158;DHT22;12316;50.904;4.200;2023-05-16T01:31:04;8.50;99.90
24158;DHT22;12316;50.904;4.200;2023-05-16T01:33:30;8.40;99.90
24158;DHT22;12316;50.904;4.200;2023-05-16T01:36:12;8.50;99.90
24158;DHT22;12316;50.904;4.200;2023-05-16T01:39:14;8.40;99.90
24158;DHT22;12316;50.904;4.200;2023-05-16T01:42:13;8.50;99.90
24158;DHT22;12316;50.904;4.200;2023-05-16T01:44:53;8.40;99.90
24158;DHT22;12316;50.904;4.200;2023-05-16T01:47:22;8.40;99.90
24158;DHT22;12316;50.904;4.200;2023-05-16T01:50:17;8.40;99.90
24158;DHT22;12316;50.904;4.200;2023-05-16T01:52:58;8.40;99.90
24158;DHT22;12316;50.904;4.200;2023-05-16T01:58:15;8.40;99.90
24158;DHT22;12316;50.904;4.200;2023-05-16T02:00:42;8.30;99.90
24158;DHT22;12316;50.904;4.200;2023-05-16T02:03:08;8.40;99.90
24158;DHT22;12316;50.904;4.200;2023-05-16T02:05:33;8.40;99.90
24158;DHT22;12316;50.904;4.200;2023-05-16T02:08:00;8.40;99.90
24158;DHT22;12316;50.904;4.200;2023-05-16T02:10:26;8.40;99.90
24158;DHT22;12316;50.904;4.200;2023-05-16T02:12:52;8.30;99.90
24158;DHT22;12316;50.904;4.200;2023-05-16T02:15:18;8.40;99.90
24158;DHT22;12316;50.904;4.200;2023-05-16T02:17:43;8.40;99.90
24158;DHT22;12316;50.904;4.200;2023-05-16T02:20:09;8.50;99.90
24158;DHT22;12316;50.904;4.200;2023-05-16T02:22:36;8.50;99.90
24158;DHT22;12316;50.904;4.200;2023-05-16T02:25:04;8.50;99.90
24158;DHT22;12316;50.904;4.200;2023-05-16T02:27:30;8.60;99.90
24158;DHT22;12316;50.904;4.200;2023-05-16T02:29:56;8.60;99.90
24158;DHT22;12316;50.904;4.200;2023-05-16T02:32:22;8.60;99.90
24158;DHT22;12316;50.904;4.200;2023-05-16T02:34:48;8.50;99.90
24158;DHT22;12316;50.904;4.200;2023-05-16T02:37:13;8.50;99.90
24158;DHT22;12316;50.904;4.200;2023-05-16T02:39:39;8.40;99.90
24158;DHT22;12316;50.904;4.200;2023-05-16T02:42:06;8.50;99.90
24158;DHT22;12316;50.904;4.200;2023-05-16T02:44:31;8.40;99.90
24158;DHT22;12316;50.904;4.200;2023-05-16T02:46:57;8.20;99.90
24158;DHT22;12316;50.904;4.200;2023-05-16T02:49:23;8.40;99.90
24158;DHT22;12316;50.904;4.200;2023-05-16T02:51:48;8.30;99.90
24158;DHT22;12316;50.904;4.200;2023-05-16T02:54:15;8.40;99.90
24158;DHT22;12316;50.904;4.200;2023-05-16T02:56:40;8.30;99.90
24158;DHT22;12316;50.904;4.200;2023-05-16T02:59:06;8.30;99.90
24158;DHT22;12316;50.904;4.200;2023-05-16T03:01:32;8.20;99.90
24158;DHT22;12316;50.904;4.200;2023-05-16T03:03:58;8.20;99.90
24158;DHT22;12316;50.904;4.200;2023-05-16T03:06:23;8.20;99.90
24158;DHT22;12316;50.904;4.200;2023-05-16T03:08:49;8.20;99.90
24158;DHT22;12316;50.904;4.200;2023-05-16T03:11:16;8.20;99.90
24158;DHT22;12316;50.904;4.200;2023-05-16T03:13:45;8.10;99.90
24158;DHT22;12316;50.904;4.200;2023-05-16T03:16:11;8.10;99.90
24158;DHT22;12316;50.904;4.200;2023-05-16T03:18:36;8.10;99.90
24158;DHT22;12316;50.904;4.200;2023-05-16T03:21:02;8.00;99.90
24158;DHT22;12316;50.904;4.200;2023-05-16T03:23:28;8.00;99.90
24158;DHT22;12316;50.904;4.200;2023-05-16T03:25:54;7.90;99.90
24158;DHT22;12316;50.904;4.200;2023-05-16T03:28:20;8.00;99.90
24158;DHT22;12316;50.904;4.200;2023-05-16T03:30:46;8.00;99.90
24158;DHT22;12316;50.904;4.200;2023-05-16T03:33:12;8.00;99.90
24158;DHT22;12316;50.904;4.200;2023-05-16T03:35:38;8.00;99.90
24158;DHT22;12316;50.904;4.200;2023-05-16T03:38:04;8.00;99.90
24158;DHT22;12316;50.904;4.200;2023-05-16T03:40:30;7.90;99.90
24158;DHT22;12316;50.904;4.200;2023-05-16T03:42:55;7.90;99.90
24158;DHT22;12316;50.904;4.200;2023-05-16T03:45:21;7.90;99.90
24158;DHT22;12316;50.904;4.200;2023-05-16T03:47:50;7.90;99.90
24158;DHT22;12316;50.904;4.200;2023-05-16T03:50:16;7.90;99.90
24158;DHT22;12316;50.904;4.200;2023-05-16T03:52:41;7.90;99.90
24158;DHT22;12316;50.904;4.200;2023-05-16T03:55:07;7.90;99.90
24158;DHT22;12316;50.904;4.200;2023-05-16T03:57:36;7.90;99.90
24158;DHT22;12316;50.904;4.200;2023-05-16T04:00:07;7.90;99.90
24158;DHT22;12316;50.904;4.200;2023-05-16T04:02:33;7.90;99.90
24158;DHT22;12316;50.904;4.200;2023-05-16T04:04:58;7.90;99.90
24158;DHT22;12316;50.904;4.200;2023-05-16T04:07:24;8.00;99.90
24158;DHT22;12316;50.904;4.200;2023-05-16T04:09:50;8.00;99.90
24158;DHT22;12316;50.904;4.200;2023-05-16T04:12:16;8.00;99.90
24158;DHT22;12316;50.904;4.200;2023-05-16T04:14:42;8.10;99.90
24158;DHT22;12316;50.904;4.200;2023-05-16T04:17:08;8.10;99.90
24158;DHT22;12316;50.904;4.200;2023-05-16T04:19:33;8.00;99.90
24158;DHT22;12316;50.904;4.200;2023-05-16T04:21:59;8.10;99.90
24158;DHT22;12316;50.904;4.200;2023-05-16T04:24:25;8.10;99.90
24158;DHT22;12316;50.904;4.200;2023-05-16T04:26:53;8.20;99.90
24158;DHT22;12316;50.904;4.200;2023-05-16T04:29:20;8.20;99.90
24158;DHT22;12316;50.904;4.200;2023-05-16T04:31:46;8.20;99.90
24158;DHT22;12316;50.904;4.200;2023-05-16T04:34:12;8.30;99.90
24158;DHT22;12316;50.904;4.200;2023-05-16T04:36:38;8.40;99.90
24158;DHT22;12316;50.904;4.200;2023-05-16T04:39:03;8.60;99.90
24158;DHT22;12316;50.904;4.200;2023-05-16T04:41:29;8.90;99.90
24158;DHT22;12316;50.904;4.200;2023-05-16T04:43:55;8.90;99.90
24158;DHT22;12316;50.904;4.200;2023-05-16T04:46:20;8.80;99.90
24158;DHT22;12316;50.904;4.200;2023-05-16T04:48:46;8.90;99.90
24158;DHT22;12316;50.904;4.200;2023-05-16T04:51:12;8.90;99.90
24158;DHT22;12316;50.904;4.200;2023-05-16T04:53:37;9.20;99.90
24158;DHT22;12316;50.904;4.200;2023-05-16T04:56:03;9.40;99.90
24158;DHT22;12316;50.904;4.200;2023-05-16T04:58:30;9.70;99.90
24158;DHT22;12316;50.904;4.200;2023-05-16T05:00:57;9.90;99.90
24158;DHT22;12316;50.904;4.200;2023-05-16T05:03:24;10.10;99.90
24158;DHT22;12316;50.904;4.200;2023-05-16T05:05:49;10.30;99.90
24158;DHT22;12316;50.904;4.200;2023-05-16T05:08:16;10.50;99.90
24158;DHT22;12316;50.904;4.200;2023-05-16T05:10:42;10.70;99.90
24158;DHT22;12316;50.904;4.200;2023-05-16T05:13:10;10.80;99.90
24158;DHT22;12316;50.904;4.200;2023-05-16T05:15:35;10.90;99.90
24158;DHT22;12316;50.904;4.200;2023-05-16T05:18:01;11.00;99.90
24158;DHT22;12316;50.904;4.200;2023-05-16T05:20:27;11.10;99.90
24158;DHT22;12316;50.904;4.200;2023-05-16T05:22:52;11.30;99.90
24158;DHT22;12316;50.904;4.200;2023-05-16T05:25:18;11.40;99.90
24158;DHT22;12316;50.904;4.200;2023-05-16T05:27:44;11.60;99.90
24158;DHT22;12316;50.904;4.200;2023-05-16T05:30:10;11.70;99.90
24158;DHT22;12316;50.904;4.200;2023-05-16T05:32:36;11.80;99.90
24158;DHT22;12316;50.904;4.200;2023-05-16T05:35:02;12.00;99.90
24158;DHT22;12316;50.904;4.200;2023-05-16T05:37:29;12.20;99.90
24158;DHT22;12316;50.904;4.200;2023-05-16T05:39:55;12.30;99.90
24158;DHT22;12316;50.904;4.200;2023-05-16T05:42:21;12.50;99.90
24158;DHT22;12316;50.904;4.200;2023-05-16T05:44:46;12.60;99.90
24158;DHT22;12316;50.904;4.200;2023-05-16T05:47:12;12.80;99.90
24158;DHT22;12316;50.904;4.200;2023-05-16T05:49:38;12.90;99.90
24158;DHT22;12316;50.904;4.200;2023-05-16T05:52:04;12.90;99.90
24158;DHT22;12316;50.904;4.200;2023-05-16T05:54:30;13.00;99.90
24158;DHT22;12316;50.904;4.200;2023-05-16T05:56:56;13.00;99.90
24158;DHT22;12316;50.904;4.200;2023-05-16T05:59:22;13.00;99.90
24158;DHT22;12316;50.904;4.200;2023-05-16T06:01:48;13.00;99.90
24158;DHT22;12316;50.904;4.200;2023-05-16T06:04:18;13.00;99.90
24158;DHT22;12316;50.904;4.200;2023-05-16T06:06:43;13.10;99.90
24158;DHT22;12316;50.904;4.200;2023-05-16T06:09:09;13.40;99.90
24158;DHT22;12316;50.904;4.200;2023-05-16T06:11:35;13.60;99.90
24158;DHT22;12316;50.904;4.200;2023-05-16T06:14:00;13.70;99.90
24158;DHT22;12316;50.904;4.200;2023-05-16T06:16:26;13.80;99.90
24158;DHT22;12316;50.904;4.200;2023-05-16T06:18:52;13.70;99.90
24158;DHT22;12316;50.904;4.200;2023-05-16T06:21:18;13.40;99.90
24158;DHT22;12316;50.904;4.200;2023-05-16T06:23:43;13.20;99.90
24158;DHT22;12316;50.904;4.200;2023-05-16T06:26:09;13.20;99.90
24158;DHT22;12316;50.904;4.200;2023-05-16T06:28:35;13.10;99.90
24158;DHT22;12316;50.904;4.200;2023-05-16T06:31:00;12.90;99.90
24158;DHT22;12316;50.904;4.200;2023-05-16T06:33:26;12.80;99.90
24158;DHT22;12316;50.904;4.200;2023-05-16T06:35:52;12.70;99.90
24158;DHT22;12316;50.904;4.200;2023-05-16T06:38:18;12.50;99.90
24158;DHT22;12316;50.904;4.200;2023-05-16T06:40:44;12.40;99.90
24158;DHT22;12316;50.904;4.200;2023-05-16T06:43:10;12.40;99.90
24158;DHT22;12316;50.904;4.200;2023-05-16T06:45:36;12.40;99.90
24158;DHT22;12316;50.904;4.200;2023-05-16T06:48:03;12.30;99.90
24158;DHT22;12316;50.904;4.200;2023-05-16T06:50:29;12.00;99.90
24158;DHT22;12316;50.904;4.200;2023-05-16T06:52:55;11.90;99.90
24158;DHT22;12316;50.904;4.200;2023-05-16T06:55:20;11.80;99.90
24158;DHT22;12316;50.904;4.200;2023-05-16T06:57:46;11.70;99.90
24158;DHT22;12316;50.904;4.200;2023-05-16T07:00:13;11.80;99.90
24158;DHT22;12316;50.904;4.200;2023-05-16T07:02:38;12.10;99.90
24158;DHT22;12316;50.904;4.200;2023-05-16T07:05:05;12.10;99.90
24158;DHT22;12316;50.904;4.200;2023-05-16T07:07:31;12.00;99.90
24158;DHT22;12316;50.904;4.200;2023-05-16T07:09:57;12.30;99.90
24158;DHT22;12316;50.904;4.200;2023-05-16T07:12:22;12.60;99.90
24158;DHT22;12316;50.904;4.200;2023-05-16T07:14:48;12.80;99.90
24158;DHT22;12316;50.904;4.200;2023-05-16T07:17:14;13.00;99.90
24158;DHT22;12316;50.904;4.200;2023-05-16T07:19:40;12.80;99.90
24158;DHT22;12316;50.904;4.200;2023-05-16T07:22:06;12.80;99.90
24158;DHT22;12316;50.904;4.200;2023-05-16T07:24:32;12.80;99.90
24158;DHT22;12316;50.904;4.200;2023-05-16T07:26:57;12.80;99.90
24158;DHT22;12316;50.904;4.200;2023-05-16T07:29:23;12.70;99.90
24158;DHT22;12316;50.904;4.200;2023-05-16T07:31:49;12.50;99.90
24158;DHT22;12316;50.904;4.200;2023-05-16T07:34:16;12.60;99.90
24158;DHT22;12316;50.904;4.200;2023-05-16T07:36:42;12.50;99.90
24158;DHT22;12316;50.904;4.200;2023-05-16T07:39:08;12.40;99.90
24158;DHT22;12316;50.904;4.200;2023-05-16T07:41:33;12.30;99.90
24158;DHT22;12316;50.904;4.200;2023-05-16T07:43:59;12.20;99.90
24158;DHT22;12316;50.904;4.200;2023-05-16T07:46:24;12.20;99.90
24158;DHT22;12316;50.904;4.200;2023-05-16T07:48:50;12.30;99.90
24158;DHT22;12316;50.904;4.200;2023-05-16T07:51:16;12.50;99.90
24158;DHT22;12316;50.904;4.200;2023-05-16T07:53:42;12.50;99.90
24158;DHT22;12316;50.904;4.200;2023-05-16T07:56:08;12.60;99.90
24158;DHT22;12316;50.904;4.200;2023-05-16T07:58:33;12.50;99.90
24158;DHT22;12316;50.904;4.200;2023-05-16T08:00:59;12.40;99.90
24158;DHT22;12316;50.904;4.200;2023-05-16T08:03:25;12.40;99.90
24158;DHT22;12316;50.904;4.200;2023-05-16T08:05:51;12.30;99.90
24158;DHT22;12316;50.904;4.200;2023-05-16T08:08:17;12.50;99.90
24158;DHT22;12316;50.904;4.200;2023-05-16T08:10:43;12.70;99.90
24158;DHT22;12316;50.904;4.200;2023-05-16T08:13:08;12.70;99.90
24158;DHT22;12316;50.904;4.200;2023-05-16T08:15:34;12.90;99.90
24158;DHT22;12316;50.904;4.200;2023-05-16T08:18:00;13.20;99.90
24158;DHT22;12316;50.904;4.200;2023-05-16T08:20:26;13.30;99.90
24158;DHT22;12316;50.904;4.200;2023-05-16T08:22:52;13.40;99.90
24158;DHT22;12316;50.904;4.200;2023-05-16T08:25:18;13.60;99.90
24158;DHT22;12316;50.904;4.200;2023-05-16T08:27:44;13.80;99.90
24158;DHT22;12316;50.904;4.200;2023-05-16T08:30:11;13.80;99.90
24158;DHT22;12316;50.904;4.200;2023-05-16T08:32:37;14.10;99.90
24158;DHT22;12316;50.904;4.200;2023-05-16T08:35:03;14.30;99.90
24158;DHT22;12316;50.904;4.200;2023-05-16T08:37:29;14.30;99.90
24158;DHT22;12316;50.904;4.200;2023-05-16T08:39:57;14.20;99.90
24158;DHT22;12316;50.904;4.200;2023-05-16T08:42:23;14.20;99.90
24158;DHT22;12316;50.904;4.200;2023-05-16T08:44:48;13.80;99.90
24158;DHT22;12316;50.904;4.200;2023-05-16T08:47:18;13.60;99.90
24158;DHT22;12316;50.904;4.200;2023-05-16T08:49:47;13.40;99.90
24158;DHT22;12316;50.904;4.200;2023-05-16T08:52:17;13.30;99.90
24158;DHT22;12316;50.904;4.200;2023-05-16T08:54:44;13.20;99.90
24158;DHT22;12316;50.904;4.200;2023-05-16T08:57:11;13.30;99.90
24158;DHT22;12316;50.904;4.200;2023-05-16T08:59:37;13.40;99.90
24158;DHT22;12316;50.904;4.200;2023-05-16T09:02:04;13.50;99.90
24158;DHT22;12316;50.904;4.200;2023-05-16T09:04:30;13.40;99.90
24158;DHT22;12316;50.904;4.200;2023-05-16T09:06:56;13.50;99.90
24158;DHT22;12316;50.904;4.200;2023-05-16T09:09:23;13.80;99.90
24158;DHT22;12316;50.904;4.200;2023-05-16T09:11:49;14.20;99.90
24158;DHT22;12316;50.904;4.200;2023-05-16T09:14:14;14.30;99.90
24158;DHT22;12316;50.904;4.200;2023-05-16T09:16:40;14.50;99.90
24158;DHT22;12316;50.904;4.200;2023-05-16T09:19:06;14.50;99.90
24158;DHT22;12316;50.904;4.200;2023-05-16T09:21:33;14.30;99.90
24158;DHT22;12316;50.904;4.200;2023-05-16T09:24:06;14.20;99.90
24158;DHT22;12316;50.904;4.200;2023-05-16T09:26:33;14.00;99.90
24158;DHT22;12316;50.904;4.200;2023-05-16T09:29:00;13.90;99.90
24158;DHT22;12316;50.904;4.200;2023-05-16T09:31:28;13.90;99.90
24158;DHT22;12316;50.904;4.200;2023-05-16T09:34:03;14.40;99.90
24158;DHT22;12316;50.904;4.200;2023-05-16T09:36:31;14.30;99.90
24158;DHT22;12316;50.904;4.200;2023-05-16T09:38:56;14.30;99.90
24158;DHT22;12316;50.904;4.200;2023-05-16T09:41:22;14.50;99.90
24158;DHT22;12316;50.904;4.200;2023-05-16T09:43:48;14.70;99.90
24158;DHT22;12316;50.904;4.200;2023-05-16T09:46:14;14.60;99.90
24158;DHT22;12316;50.904;4.200;2023-05-16T09:48:44;14.40;99.90
24158;DHT22;12316;50.904;4.200;2023-05-16T09:51:11;14.50;99.90
24158;DHT22;12316;50.904;4.200;2023-05-16T09:53:38;14.60;99.90
24158;DHT22;12316;50.904;4.200;2023-05-16T09:56:12;15.00;99.90
24158;DHT22;12316;50.904;4.200;2023-05-16T09:58:44;15.20;99.90
24158;DHT22;12316;50.904;4.200;2023-05-16T10:01:11;15.30;99.90
24158;DHT22;12316;50.904;4.200;2023-05-16T10:03:39;15.30;99.90
24158;DHT22;12316;50.904;4.200;2023-05-16T10:06:06;15.30;99.90
24158;DHT22;12316;50.904;4.200;2023-05-16T10:08:33;15.10;99.90
24158;DHT22;12316;50.904;4.200;2023-05-16T10:11:04;14.60;99.90
24158;DHT22;12316;50.904;4.200;2023-05-16T10:13:32;14.20;99.90
24158;DHT22;12316;50.904;4.200;2023-05-16T10:16:00;14.30;99.90
24158;DHT22;12316;50.904;4.200;2023-05-16T10:18:30;14.30;99.90
24158;DHT22;12316;50.904;4.200;2023-05-16T10:21:03;14.50;99.90
24158;DHT22;12316;50.904;4.200;2023-05-16T10:23:30;14.60;99.90
24158;DHT22;12316;50.904;4.200;2023-05-16T10:25:59;14.70;99.90
24158;DHT22;12316;50.904;4.200;2023-05-16T10:28:25;15.00;99.90
24158;DHT22;12316;50.904;4.200;2023-05-16T10:30:53;15.40;99.90
24158;DHT22;12316;50.904;4.200;2023-05-16T10:33:19;15.60;99.90
24158;DHT22;12316;50.904;4.200;2023-05-16T10:35:46;15.70;99.90
24158;DHT22;12316;50.904;4.200;2023-05-16T10:38:15;15.60;99.90
24158;DHT22;12316;50.904;4.200;2023-05-16T10:40:42;15.50;99.90
24158;DHT22;12316;50.904;4.200;2023-05-16T10:43:08;15.30;99.90
24158;DHT22;12316;50.904;4.200;2023-05-16T10:45:40;15.20;99.90
24158;DHT22;12316;50.904;4.200;2023-05-16T10:48:06;15.20;99.90
24158;DHT22;12316;50.904;4.200;2023-05-16T10:50:44;15.60;99.90
24158;DHT22;12316;50.904;4.200;2023-05-16T10:53:15;15.70;99.90
24158;DHT22;12316;50.904;4.200;2023-05-16T11:01:22;15.10;99.90
24158;DHT22;12316;50.904;4.200;2023-05-16T11:06:44;15.00;99.90
24158;DHT22;12316;50.904;4.200;2023-05-16T11:11:43;15.20;99.90
24158;DHT22;12316;50.904;4.200;2023-05-16T11:17:00;15.50;99.90
24158;DHT22;12316;50.904;4.200;2023-05-16T11:19:34;15.60;99.90
24158;DHT22;12316;50.904;4.200;2023-05-16T11:24:38;15.50;99.90
24158;DHT22;12316;50.904;4.200;2023-05-16T11:27:13;15.60;99.90
24158;DHT22;12316;50.904;4.200;2023-05-16T11:29:45;15.20;99.90
24158;DHT22;12316;50.904;4.200;2023-05-16T11:32:11;15.10;99.90
24158;DHT22;12316;50.904;4.200;2023-05-16T11:34:37;15.50;99.90
24158;DHT22;12316;50.904;4.200;2023-05-16T11:37:04;15.90;99.90
24158;DHT22;12316;50.904;4.200;2023-05-16T11:39:31;15.80;99.70
24158;DHT22;12316;50.904;4.200;2023-05-16T11:41:56;15.80;99.90
24158;DHT22;12316;50.904;4.200;2023-05-16T11:44:22;15.70;99.90
24158;DHT22;12316;50.904;4.200;2023-05-16T11:46:48;15.70;99.90
24158;DHT22;12316;50.904;4.200;2023-05-16T11:49:13;15.80;99.90
24158;DHT22;12316;50.904;4.200;2023-05-16T11:51:42;15.80;99.90
24158;DHT22;12316;50.904;4.200;2023-05-16T11:54:11;15.60;99.90
24158;DHT22;12316;50.904;4.200;2023-05-16T11:56:39;15.60;99.90
24158;DHT22;12316;50.904;4.200;2023-05-16T11:59:07;15.40;99.90
24158;DHT22;12316;50.904;4.200;2023-05-16T12:01:38;15.20;99.90
24158;DHT22;12316;50.904;4.200;2023-05-16T12:04:11;15.10;99.90
24158;DHT22;12316;50.904;4.200;2023-05-16T12:06:41;15.10;99.90
24158;DHT22;12316;50.904;4.200;2023-05-16T12:09:14;15.40;99.70
24158;DHT22;12316;50.904;4.200;2023-05-16T12:11:41;15.70;99.90
24158;DHT22;12316;50.904;4.200;2023-05-16T12:14:09;15.80;99.00
24158;DHT22;12316;50.904;4.200;2023-05-16T12:16:35;15.60;99.50
24158;DHT22;12316;50.904;4.200;2023-05-16T12:19:03;15.60;96.80
24158;DHT22;12316;50.904;4.200;2023-05-16T12:21:31;15.70;98.00
24158;DHT22;12316;50.904;4.200;2023-05-16T12:23:57;15.80;97.00
24158;DHT22;12316;50.904;4.200;2023-05-16T12:26:29;15.80;97.90
24158;DHT22;12316;50.904;4.200;2023-05-16T12:28:57;16.00;98.70
24158;DHT22;12316;50.904;4.200;2023-05-16T12:31:26;16.30;98.20
24158;DHT22;12316;50.904;4.200;2023-05-16T12:33:52;16.20;95.70
24158;DHT22;12316;50.904;4.200;2023-05-16T12:36:19;16.10;96.80
24158;DHT22;12316;50.904;4.200;2023-05-16T12:38:46;16.40;97.10
24158;DHT22;12316;50.904;4.200;2023-05-16T12:41:17;16.30;96.00
24158;DHT22;12316;50.904;4.200;2023-05-16T12:43:43;16.20;96.30
24158;DHT22;12316;50.904;4.200;2023-05-16T12:46:10;16.10;97.20
24158;DHT22;12316;50.904;4.200;2023-05-16T12:48:39;16.20;97.40
24158;DHT22;12316;50.904;4.200;2023-05-16T12:51:14;16.10;96.20
24158;DHT22;12316;50.904;4.200;2023-05-16T12:53:41;16.00;96.70
24158;DHT22;12316;50.904;4.200;2023-05-16T12:56:07;16.00;96.60
24158;DHT22;12316;50.904;4.200;2023-05-16T12:58:33;16.10;96.30
24158;DHT22;12316;50.904;4.200;2023-05-16T13:00:59;16.10;97.00
24158;DHT22;12316;50.904;4.200;2023-05-16T13:03:25;16.20;97.20
24158;DHT22;12316;50.904;4.200;2023-05-16T13:05:50;16.10;97.10
24158;DHT22;12316;50.904;4.200;2023-05-16T13:08:17;15.90;97.90
24158;DHT22;12316;50.904;4.200;2023-05-16T13:10:42;16.10;98.40
24158;DHT22;12316;50.904;4.200;2023-05-16T13:13:08;16.00;98.20
24158;DHT22;12316;50.904;4.200;2023-05-16T13:15:34;15.90;97.50
24158;DHT22;12316;50.904;4.200;2023-05-16T13:17:59;15.90;97.90
24158;DHT22;12316;50.904;4.200;2023-05-16T13:20:25;15.90;97.60
24158;DHT22;12316;50.904;4.200;2023-05-16T13:22:51;16.00;98.10
24158;DHT22;12316;50.904;4.200;2023-05-16T13:25:16;16.20;98.90
24158;DHT22;12316;50.904;4.200;2023-05-16T13:27:42;16.50;97.90
24158;DHT22;12316;50.904;4.200;2023-05-16T13:30:08;16.40;98.10
24158;DHT22;12316;50.904;4.200;2023-05-16T13:32:34;16.30;97.90
24158;DHT22;12316;50.904;4.200;2023-05-16T13:35:00;16.10;97.80
24158;DHT22;12316;50.904;4.200;2023-05-16T13:37:25;16.30;98.50
24158;DHT22;12316;50.904;4.200;2023-05-16T13:39:51;16.90;98.00
24158;DHT22;12316;50.904;4.200;2023-05-16T13:42:19;17.20;97.50
24158;DHT22;12316;50.904;4.200;2023-05-16T13:44:45;17.10;97.10
24158;DHT22;12316;50.904;4.200;2023-05-16T13:47:11;17.10;97.60
24158;DHT22;12316;50.904;4.200;2023-05-16T13:49:36;16.70;96.60
24158;DHT22;12316;50.904;4.200;2023-05-16T13:52:03;16.20;97.50
24158;DHT22;12316;50.904;4.200;2023-05-16T13:54:29;16.10;98.10
24158;DHT22;12316;50.904;4.200;2023-05-16T13:56:55;16.30;98.30
24158;DHT22;12316;50.904;4.200;2023-05-16T13:59:22;16.50;98.70
24158;DHT22;12316;50.904;4.200;2023-05-16T14:01:47;16.70;97.80
24158;DHT22;12316;50.904;4.200;2023-05-16T14:04:13;16.90;97.80
24158;DHT22;12316;50.904;4.200;2023-05-16T14:06:39;16.90;97.30
24158;DHT22;12316;50.904;4.200;2023-05-16T14:09:04;16.80;97.40
24158;DHT22;12316;50.904;4.200;2023-05-16T14:11:30;17.00;98.50
24158;DHT22;12316;50.904;4.200;2023-05-16T14:13:56;17.20;97.80
24158;DHT22;12316;50.904;4.200;2023-05-16T14:16:22;17.40;97.70
24158;DHT22;12316;50.904;4.200;2023-05-16T14:18:48;17.40;96.90
24158;DHT22;12316;50.904;4.200;2023-05-16T14:21:13;17.30;96.40
24158;DHT22;12316;50.904;4.200;2023-05-16T14:23:39;17.20;96.80
24158;DHT22;12316;50.904;4.200;2023-05-16T14:26:05;17.10;97.10
24158;DHT22;12316;50.904;4.200;2023-05-16T14:28:31;17.00;96.20
24158;DHT22;12316;50.904;4.200;2023-05-16T14:31:00;16.90;96.70
24158;DHT22;12316;50.904;4.200;2023-05-16T14:33:26;16.90;96.50
24158;DHT22;12316;50.904;4.200;2023-05-16T14:35:52;16.60;96.50
24158;DHT22;12316;50.904;4.200;2023-05-16T14:38:18;16.60;97.20
24158;DHT22;12316;50.904;4.200;2023-05-16T14:40:44;16.60;95.70
24158;DHT22;12316;50.904;4.200;2023-05-16T14:43:09;16.60;96.40
24158;DHT22;12316;50.904;4.200;2023-05-16T14:45:36;16.40;96.50
24158;DHT22;12316;50.904;4.200;2023-05-16T14:48:04;16.30;96.90
24158;DHT22;12316;50.904;4.200;2023-05-16T14:50:30;16.30;96.90
24158;DHT22;12316;50.904;4.200;2023-05-16T14:52:56;16.20;96.50
24158;DHT22;12316;50.904;4.200;2023-05-16T14:55:23;16.20;97.10
24158;DHT22;12316;50.904;4.200;2023-05-16T14:57:48;16.20;97.00
24158;DHT22;12316;50.904;4.200;2023-05-16T15:00:15;16.40;97.30
24158;DHT22;12316;50.904;4.200;2023-05-16T15:02:42;16.50;96.70
24158;DHT22;12316;50.904;4.200;2023-05-16T15:05:08;16.80;96.90
24158;DHT22;12316;50.904;4.200;2023-05-16T15:07:34;16.80;96.50
24158;DHT22;12316;50.904;4.200;2023-05-16T15:09:59;16.80;96.10
24158;DHT22;12316;50.904;4.200;2023-05-16T15:12:26;16.70;96.40
24158;DHT22;12316;50.904;4.200;2023-05-16T15:14:51;16.70;95.90
24158;DHT22;12316;50.904;4.200;2023-05-16T15:17:18;16.50;96.30
24158;DHT22;12316;50.904;4.200;2023-05-16T15:19:44;16.60;96.70
24158;DHT22;12316;50.904;4.200;2023-05-16T15:22:10;16.60;96.30
24158;DHT22;12316;50.904;4.200;2023-05-16T15:24:35;16.70;96.30
24158;DHT22;12316;50.904;4.200;2023-05-16T15:27:01;16.80;96.10
24158;DHT22;12316;50.904;4.200;2023-05-16T15:29:29;17.00;96.60
24158;DHT22;12316;50.904;4.200;2023-05-16T15:31:55;17.10;96.90
24158;DHT22;12316;50.904;4.200;2023-05-16T15:34:20;17.00;96.50
24158;DHT22;12316;50.904;4.200;2023-05-16T15:36:46;16.90;96.20
24158;DHT22;12316;50.904;4.200;2023-05-16T15:39:12;16.90;96.10
24158;DHT22;12316;50.904;4.200;2023-05-16T15:41:37;16.80;96.80
24158;DHT22;12316;50.904;4.200;2023-05-16T15:44:03;17.00;97.20
24158;DHT22;12316;50.904;4.200;2023-05-16T15:46:29;17.10;96.90
24158;DHT22;12316;50.904;4.200;2023-05-16T15:48:57;17.30;97.00
24158;DHT22;12316;50.904;4.200;2023-05-16T15:51:23;17.50;97.10
24158;DHT22;12316;50.904;4.200;2023-05-16T15:53:50;17.50;96.30
24158;DHT22;12316;50.904;4.200;2023-05-16T15:56:16;17.30;95.90
24158;DHT22;12316;50.904;4.200;2023-05-16T15:58:42;17.30;96.20